OOCL Nagoya — VRFX8 — position and weather

sailwx.info

Track history (hours):
 
Tides and Currents Weather Stations Pressure Air Temp Water Temp Dewpoint Dewpoint Depression Visibility Wind Speed Wind Dir Waves Ship Positions

OOCL Nagoya

Last reported at 2014-Oct-31 00:00 UTC. Time now 2014-Nov-01 09:02 UTC.
Position S 02°36' E 107°12'.

Length 261 m; draft 10.7 m.

Type: Cargo ship. MMSI: 477627900.

Wind from 120 at 4 knots

Waves 1.0 meters (3 feet), 2 second period

Barometer 1008.0 mb
Air temperature 27.0 ° C
Visibility: greater than 10.8 NM
Dewpoint 24.0 ° C

Date/timePositionNaut miles runAvg speedWind from/ knotsBaromVisibWave heightAir tempDewpointWater temp
2014-Oct-31 00:00S 02°36' E 107°12'   120 / 41008.010.8 1.027.024.0
2014-Oct-25 11:33N 01°15' E 104°04'8 8.0
2014-Oct-25 10:33N 01°13' E 103°56'5 5.4
2014-Oct-25 09:34N 01°16' E 103°51'0 0.4
2014-Oct-25 08:28N 01°16' E 103°51'0 0.0
2014-Oct-25 07:28N 01°16' E 103°51'0 0.0
2014-Oct-25 06:31N 01°16' E 103°51'0 0.0
2014-Oct-25 05:28N 01°16' E 103°51'0 0.0
2014-Oct-25 04:31N 01°16' E 103°51'0 0.0
2014-Oct-25 03:28N 01°16' E 103°51'0 0.0
2014-Oct-25 02:28N 01°16' E 103°51'0 0.0
2014-Oct-25 01:28N 01°16' E 103°51'0 0.0
2014-Oct-25 00:28N 01°16' E 103°51'0 0.0
2014-Oct-24 23:31N 01°16' E 103°51'0 0.0
2014-Oct-24 22:28N 01°16' E 103°51'0 0.0
2014-Oct-24 21:31N 01°16' E 103°51'0 0.0
2014-Oct-24 20:28N 01°16' E 103°51'0 0.0
2014-Oct-24 19:31N 01°16' E 103°51'0 0.0
2014-Oct-24 18:31N 01°16' E 103°51'0 0.0
2014-Oct-24 17:31N 01°16' E 103°51'0 0.0
2014-Oct-24 16:28N 01°16' E 103°51'1 0.8
2014-Oct-24 15:33N 01°15' E 103°51'3 3.5
2014-Oct-24 14:33N 01°14' E 103°55'6 5.4
2014-Oct-24 13:31N 01°16' E 103°60'  
Track history (hours):
 
Tides and Currents Weather Stations Pressure Air Temp Water Temp Dewpoint Dewpoint Depression Visibility Wind Speed Wind Dir Waves Ship Positions

OOCL Nagoya

Last reported at 2014-Oct-31 00:00 UTC. Time now 2014-Nov-01 09:02 UTC.
Position S 02°36' E 107°12'.

Length 261 m; draft 10.7 m.

Type: Cargo ship. MMSI: 477627900.

Wind from 120 at 4 knots

Waves 1.0 meters (3 feet), 2 second period

Barometer 1008.0 mb
Air temperature 27.0 ° C
Visibility: greater than 10.8 NM
Dewpoint 24.0 ° C

Date/timePositionNaut miles runAvg speedWind from/ knotsBaromVisibWave heightAir tempDewpointWater temp
2014-Oct-31 00:00S 02°36' E 107°12'   120 / 41008.010.8 1.027.024.0
2014-Oct-25 11:33N 01°15' E 104°04'8 8.0
2014-Oct-25 10:33N 01°13' E 103°56'5 5.4
2014-Oct-25 09:34N 01°16' E 103°51'0 0.4
2014-Oct-25 08:28N 01°16' E 103°51'0 0.0
2014-Oct-25 07:28N 01°16' E 103°51'0 0.0
2014-Oct-25 06:31N 01°16' E 103°51'0 0.0
2014-Oct-25 05:28N 01°16' E 103°51'0 0.0
2014-Oct-25 04:31N 01°16' E 103°51'0 0.0
2014-Oct-25 03:28N 01°16' E 103°51'0 0.0
2014-Oct-25 02:28N 01°16' E 103°51'0 0.0
2014-Oct-25 01:28N 01°16' E 103°51'0 0.0
2014-Oct-25 00:28N 01°16' E 103°51'0 0.0
2014-Oct-24 23:31N 01°16' E 103°51'0 0.0
2014-Oct-24 22:28N 01°16' E 103°51'0 0.0
2014-Oct-24 21:31N 01°16' E 103°51'0 0.0
2014-Oct-24 20:28N 01°16' E 103°51'0 0.0
2014-Oct-24 19:31N 01°16' E 103°51'0 0.0
2014-Oct-24 18:31N 01°16' E 103°51'0 0.0
2014-Oct-24 17:31N 01°16' E 103°51'0 0.0
2014-Oct-24 16:28N 01°16' E 103°51'1 0.8
2014-Oct-24 15:33N 01°15' E 103°51'3 3.5
2014-Oct-24 14:33N 01°14' E 103°55'6 5.4
2014-Oct-24 13:31N 01°16' E 103°60'  

Dump ship's entire track history